Kezdőlap
METAR-TAF:

METAR-TAF

Repülőterek :

Ho Si Minh-város, Vietnam

Tan Son Nhat nemzetközi repülőtér

földrajzi szélesség: 10-49N, földrajzi hosszúság: 106-40E, magasság: 19 m

Jelenlegi meteorológiai megfigyelések

A jelentés 10 órával és 27 perccel ezelõtt készült, 15:00 UTC
Délkeleti szél 9 kt, kelet-délkeleti és déli között változik
Hőmérséklet 26°C
Páratartalom 79%
Légköri nyomás 1010 hPa
Látótávolság 10 km, vagy több
Kevés felhő 2000 lábon

METAR: VVTS 201500Z 13009KT 120V180 9999 FEW020 26/22 Q1010 NOSIG

Idő: 08:27 (01:27 UTC)

Előrejelzés

A jelentés 14 órával és 27 perccel ezelõtt készült, 11:00 UTC
Az előrejelzés 20-én 12 óra UTC és 21-én 18 óra UTC között érvényes
Déli szél 8 kt
Látótávolság 10 km, vagy több
Szórványos felhőzet 1700 lábon
20-én 22 óra UTC és 20-én 23 óra UTC között fokozatosan kialakuló
Keleti szél 10 kt

TAF: VVTS 201100Z 2012/2118 18008KT 9999 SCT017 BECMG 2022/2023 08010KT

Meteorológiai megfigyelések és előrejelzések több, mint 4000 repülőtéren (METAR és TAF jelentéseket).

A térképen piros és sárga pontok jelzik az elérhető meteorológiai állomásokat.

Mozgassa az egeret a pont fölött, hogy megjelenjen az állomás neve.

Azután kattintson az időjárási megfigyelések és előrejelzések megtekintéséhez.

A térkép megváltoztatása: kattintson a fekete keresztel jelölt zöld gombra ráközelítéshez, a vonallal jelölt zöld gombra távolításhoz, vagy a zöld nyilakra a szomszédos térképek eléréséhez.


METAR-TAF: